La Villeneuve, France

73.2°F / 22.9°C
Clear
Heat Index: 77°F / 25°C
Humidity: 47%
Dew Point: 52°F / 11°C
Wind: West at 2.5 mph / 4.0 km/h
Wind Gust: 3.6 mph / 5.8 km/h
Pressure: 29.68 in / 1005 hPa (Falling)
Visibility: -
Clouds:
Yesterday's Maximum: 76.5°F / 24.7°C
Yesterday's Minimum: 43.3°F / 6.3°C
Sunrise:6:49 AM CEST
Sunset:8:55 PM CEST
Moon Rise:
Moon Set:8:50 AM CEST
Moon Phase Waning Gibbous
NOAA Weather Radio
No local feed.
METAR LFPT 221100Z AUTO VRB01KT CAVOK 23/09 Q1005
As of: 1:25 PM CEST on April 22, 2019
Observed at: Montreuil sur Epte, Val d'Oise, Montreuil-sur-Epte, France

View Station's History

No Yes

Local Satellite

Current Satellite Forecast
Region Default Local
No Yes

View Full Screen WunderMap

Forecast

Current Satellite Forecast

Features

Weather Apps

WunderRadio

Weather Underground Apps
Check out our wide variety of mobile and setup applications.

Weather Underground Applications

Top of Page

© Copyright 2019
The Weather Company, LLC